weather.gov     
National Weather Service

Terminal Aerodrome Forecast
NWS Homepage
This page is being discontinued on March 12, 2014.
The same data is available at this site. Please update your bookmarks.
Thank you, and we apologize for the inconvenience.
Please send an email to SR-SRH.Webmaster@noaa.gov with any concerns.


Current Version
Previous Version:    01  02  03  04  05  06  07  08  09  10  11  12  13  14  15  16  17  18  19  20  21  22  23  24  25  26  27  28  29  30  
   31  32  33  34  35  36  37  38  39  40  41  42  43  44  45  46  47  48  49  50  51  52  53  
[Printable]
522
FTUS43 KSGF 231700
TAFSGF
TAF
KSGF 231726Z 2318/2418 16011KT 4SM -DZ BR OVC005
      TEMPO 2318/2321 6SM BR OVC012
     FM232100 19010KT P6SM -DZ SCT007 OVC015
     FM240000 23011KT 4SM -SHRA BR VCTS SCT007 OVC015CB
     FM240300 31020G30KT 3SM -RADZ BR OVC006
     FM240800 30020G30KT 4SM -RASN BR OVC006
     FM241100 30018G25KT P6SM OVC007
     FM241500 29018G25KT P6SM OVC012=


U.S. Dept. of Commerce
NOAA National Weather Service
1325 East West Highway
Silver Spring, MD 20910
E-mail: w-nws.webmaster@noaa.gov
Page last modified: May 16, 2007
NATIONAL WEATHER SERVICE: for Safety, for Work, for Fun - FOR LIFE